In Rescue
 
Open Full Screen Window  High Contrast Mode
Wind Gusting 00 knots
09
May 20, 2019 2:39 PM EDT
Weather Information
Wind Direction
  330 °
Wind Speed
  09 kt (10 mph)
Wind Gust
  00 kt (0 mph)
Altimeter
30.05 in
Visibility
10 SM
Temperature
09° C
48° F
Dewpoint
04° C
39° F
Humidity
71%
Sky Condition
Clear
VFR

METAR KCVX 201839Z AUTO 33009KT 10SM CLR 09/04 A3005 RMK AO2 T00920038

FAA Disclaimer: The data displayed is for advisory purposes only and is not to be used for flight planning or operations.